Time;durP1;ratioP1;P1;durP2;ratioP2;P2;SDS_P1;SDS_P2;PMS_P1;PMS_P2;Temp;Humidity;BMP_temperature;BMP_pressure;BME280_temperature;BME280_humidity;BME280_pressure;Samples;Min_cycle;Max_cycle;Signal;HPM_P1;HPM_P2
2022/06/19 00:04:56;;;;;;;9.25;7.20;;;;;;;;;;10224928;28;20424;-90
2022/06/19 00:10:00;;;;;;;8.60;7.05;;;;;;;;;;10221291;28;20430;-88
2022/06/19 00:15:02;;;;;;;8.77;7.10;;;;;;;;;;10227253;29;20522;-89
2022/06/19 00:20:05;;;;;;;8.90;6.97;;;;;;;;;;10226103;28;20443;-89
2022/06/19 00:25:09;;;;;;;7.72;6.90;;;;;;;;;;10219440;28;20513;-90
2022/06/19 00:30:13;;;;;;;11.93;7.03;;;;;;;;;;10234705;28;20937;-89
2022/06/19 00:35:15;;;;;;;7.47;6.78;;;;;;;;;;10228703;28;20506;-91
2022/06/19 00:40:19;;;;;;;9.02;6.82;;;;;;;;;;10227902;28;20428;-89
2022/06/19 00:45:33;;;;;;;8.05;7.20;;;;;;;;;;10227300;28;20454;-88
2022/06/19 00:50:36;;;;;;;9.13;7.70;;;;;;;;;;10229576;28;20499;-89
2022/06/19 00:55:41;;;;;;;10.43;7.40;;;;;;;;;;10231524;28;20451;-90
2022/06/19 01:00:46;;;;;;;10.88;9.07;;;;;;;;;;10232889;28;20501;-90
2022/06/19 01:05:49;;;;;;;10.87;9.23;;;;;;;;;;10241482;28;20514;-89
2022/06/19 01:10:54;;;;;;;12.57;9.70;;;;;;;;;;10241967;28;20440;-89
2022/06/19 01:15:56;;;;;;;14.10;12.00;;;;;;;;;;10235731;28;20499;-90
2022/06/19 01:21:06;;;;;;;12.43;11.20;;;;;;;;;;10235905;28;20451;-90
2022/06/19 01:26:14;;;;;;;14.35;12.38;;;;;;;;;;10240867;28;20441;-89
2022/06/19 01:31:17;;;;;;;15.50;13.90;;;;;;;;;;10224308;28;20915;-89
2022/06/19 01:36:22;;;;;;;15.88;13.93;;;;;;;;;;10233491;28;20477;-90
2022/06/19 01:41:29;;;;;;;15.70;14.20;;;;;;;;;;10231600;28;20445;-89
2022/06/19 01:46:31;;;;;;;17.17;15.38;;;;;;;;;;10228902;28;20433;-90
2022/06/19 01:51:34;;;;;;;16.00;14.40;;;;;;;;;;10228047;28;20448;-88
2022/06/19 01:56:37;;;;;;;17.35;15.57;;;;;;;;;;10237574;28;20452;-89
2022/06/19 02:01:40;;;;;;;18.83;15.90;;;;;;;;;;10238360;28;20816;-89
2022/06/19 02:06:45;;;;;;;17.13;15.52;;;;;;;;;;10241966;28;20912;-89
2022/06/19 02:11:49;;;;;;;17.48;15.70;;;;;;;;;;10229062;28;20853;-89
2022/06/19 02:16:51;;;;;;;17.17;15.47;;;;;;;;;;10239773;28;20495;-89
2022/06/19 02:21:54;;;;;;;16.88;15.18;;;;;;;;;;10236546;28;20449;-90
2022/06/19 02:26:58;;;;;;;16.93;15.17;;;;;;;;;;10224261;28;20429;-89
2022/06/19 02:32:00;;;;;;;18.08;15.98;;;;;;;;;;10236726;28;20527;-88
2022/06/19 02:37:05;;;;;;;20.30;18.20;;;;;;;;;;10241050;28;20439;-90
2022/06/19 02:42:30;;;;;;;20.48;18.33;;;;;;;;;;10237560;29;20486;-87
2022/06/19 02:47:35;;;;;;;20.63;18.58;;;;;;;;;;10230929;28;20514;-87
2022/06/19 02:52:37;;;;;;;19.70;17.57;;;;;;;;;;10240587;28;20417;-91
2022/06/19 02:57:40;;;;;;;19.58;17.58;;;;;;;;;;10227314;28;20453;-88
2022/06/19 03:02:42;;;;;;;18.87;16.70;;;;;;;;;;10231242;28;20420;-89
2022/06/19 03:07:45;;;;;;;17.23;15.60;;;;;;;;;;10253548;28;21002;-88
2022/06/19 03:12:48;;;;;;;18.50;16.60;;;;;;;;;;10226406;28;20446;-88
2022/06/19 03:17:50;;;;;;;18.00;16.07;;;;;;;;;;10239134;28;20487;-89
2022/06/19 03:22:52;;;;;;;17.57;15.83;;;;;;;;;;10239088;28;20988;-91
2022/06/19 03:27:57;;;;;;;17.23;15.48;;;;;;;;;;10243278;28;20485;-89
2022/06/19 03:32:58;;;;;;;17.13;15.02;;;;;;;;;;10250442;28;20496;-89
2022/06/19 03:38:00;;;;;;;15.57;13.85;;;;;;;;;;10239504;28;20412;-90
2022/06/19 03:43:04;;;;;;;14.65;12.75;;;;;;;;;;10239118;28;20447;-89
2022/06/19 03:48:07;;;;;;;15.25;13.70;;;;;;;;;;10237668;28;20511;-89
2022/06/19 03:53:10;;;;;;;14.65;13.15;;;;;;;;;;10239236;28;20420;-89
2022/06/19 03:58:13;;;;;;;13.85;12.40;;;;;;;;;;10238316;28;20412;-89
2022/06/19 04:03:15;;;;;;;13.32;12.00;;;;;;;;;;10236219;28;20453;-89
2022/06/19 04:08:17;;;;;;;13.65;11.90;;;;;;;;;;10224659;29;20519;-89
2022/06/19 04:13:20;;;;;;;12.63;11.20;;;;;;;;;;10233488;28;20447;-89
2022/06/19 04:18:22;;;;;;;12.27;11.10;;;;;;;;;;10213025;28;21148;-91
2022/06/19 04:23:24;;;;;;;12.40;11.10;;;;;;;;;;10226891;28;20421;-90
2022/06/19 04:28:28;;;;;;;12.88;11.60;;;;;;;;;;10229187;28;20998;-89
2022/06/19 04:33:32;;;;;;;14.15;12.23;;;;;;;;;;10222200;28;20495;-88
2022/06/19 04:38:34;;;;;;;13.93;12.53;;;;;;;;;;10227168;28;20445;-90
2022/06/19 04:43:37;;;;;;;13.73;12.40;;;;;;;;;;10236521;28;20495;-88
2022/06/19 04:48:39;;;;;;;12.80;11.50;;;;;;;;;;10231376;28;20516;-90
2022/06/19 04:53:41;;;;;;;13.30;11.90;;;;;;;;;;10233566;28;20521;-94
2022/06/19 04:58:46;;;;;;;13.30;12.05;;;;;;;;;;10228760;28;20717;-95
2022/06/19 05:03:48;;;;;;;15.07;13.47;;;;;;;;;;10228658;28;20471;-89
2022/06/19 05:08:50;;;;;;;16.30;14.57;;;;;;;;;;10227121;29;20966;-90
2022/06/19 05:13:53;;;;;;;17.55;15.70;;;;;;;;;;10226166;28;20508;-87
2022/06/19 05:18:56;;;;;;;17.92;16.13;;;;;;;;;;10229673;28;20477;-88
2022/06/19 05:23:58;;;;;;;17.25;15.38;;;;;;;;;;10236958;28;20451;-90
2022/06/19 05:29:03;;;;;;;17.88;15.63;;;;;;;;;;10236027;28;20821;-89
2022/06/19 05:34:05;;;;;;;19.40;16.40;;;;;;;;;;10243061;28;20503;-90
2022/06/19 05:39:08;;;;;;;18.83;15.63;;;;;;;;;;10239263;28;21282;-88
2022/06/19 05:44:12;;;;;;;16.98;15.27;;;;;;;;;;10238973;29;20432;-90
2022/06/19 05:49:14;;;;;;;17.20;15.35;;;;;;;;;;10233323;28;20789;-89
2022/06/19 05:54:16;;;;;;;16.92;15.23;;;;;;;;;;10246964;28;20455;-91
2022/06/19 05:59:20;;;;;;;16.67;15.02;;;;;;;;;;10240004;28;20503;-90
2022/06/19 06:04:22;;;;;;;16.67;14.98;;;;;;;;;;10227702;28;20419;-89
2022/06/19 06:09:24;;;;;;;15.97;14.20;;;;;;;;;;10232219;28;20420;-88
2022/06/19 06:14:28;;;;;;;15.77;14.13;;;;;;;;;;10246922;28;20454;-87
2022/06/19 06:19:29;;;;;;;15.10;13.63;;;;;;;;;;10251781;28;20912;-90
2022/06/19 06:24:32;;;;;;;16.20;14.57;;;;;;;;;;10229221;28;20909;-90
2022/06/19 06:29:36;;;;;;;17.43;15.60;;;;;;;;;;10237983;28;20435;-89
2022/06/19 06:34:38;;;;;;;17.83;14.23;;;;;;;;;;10236207;28;20428;-90
2022/06/19 06:39:40;;;;;;;14.68;13.18;;;;;;;;;;10230032;28;20416;-89
2022/06/19 06:44:43;;;;;;;14.27;12.77;;;;;;;;;;10238013;28;20416;-91
2022/06/19 06:49:45;;;;;;;13.33;12.03;;;;;;;;;;10247900;28;20414;-90
2022/06/19 06:54:47;;;;;;;14.05;12.52;;;;;;;;;;10254161;28;20901;-90
2022/06/19 06:59:50;;;;;;;12.25;10.95;;;;;;;;;;10248126;28;20422;-90
2022/06/19 07:04:52;;;;;;;12.88;11.40;;;;;;;;;;10219662;28;20441;-90
2022/06/19 07:09:54;;;;;;;11.50;10.18;;;;;;;;;;10237828;28;20419;-89
2022/06/19 07:14:58;;;;;;;10.53;9.50;;;;;;;;;;10229640;28;21002;-90
2022/06/19 07:19:59;;;;;;;9.60;8.70;;;;;;;;;;10241024;28;20487;-92
2022/06/19 07:25:02;;;;;;;10.70;9.70;;;;;;;;;;10232168;28;20451;-91
2022/06/19 07:30:08;;;;;;;13.23;8.85;;;;;;;;;;10246769;28;20491;-90
2022/06/19 07:35:10;;;;;;;10.57;9.43;;;;;;;;;;10228946;28;20440;-90
2022/06/19 07:40:15;;;;;;;12.27;11.07;;;;;;;;;;10235353;29;20515;-89
2022/06/19 07:45:19;;;;;;;10.45;9.45;;;;;;;;;;10233181;28;20416;-90
2022/06/19 07:50:21;;;;;;;11.43;9.77;;;;;;;;;;10230926;28;20487;-89
2022/06/19 07:55:26;;;;;;;13.15;10.30;;;;;;;;;;10227206;28;20455;-88
2022/06/19 08:00:33;;;;;;;10.43;9.43;;;;;;;;;;10215514;28;20783;-89
2022/06/19 08:05:37;;;;;;;11.83;8.67;;;;;;;;;;10221820;28;20511;-91
2022/06/19 08:10:46;;;;;;;10.90;8.40;;;;;;;;;;10220369;28;20789;-90
2022/06/19 08:15:50;;;;;;;8.13;7.32;;;;;;;;;;10231264;28;20433;-89
2022/06/19 08:20:52;;;;;;;8.20;7.32;;;;;;;;;;10230795;28;20487;-90
2022/06/19 08:25:54;;;;;;;9.47;8.50;;;;;;;;;;10234254;28;20494;-91
2022/06/19 08:30:57;;;;;;;9.07;8.20;;;;;;;;;;10232804;28;20498;-89
2022/06/19 08:36:02;;;;;;;8.02;7.22;;;;;;;;;;10233596;28;20487;-90
2022/06/19 08:41:27;;;;;;;9.10;8.15;;;;;;;;;;10230915;28;21157;-89
2022/06/19 08:46:41;;;;;;;9.05;8.15;;;;;;;;;;10231033;28;20451;-92
2022/06/19 08:51:52;;;;;;;7.30;6.63;;;;;;;;;;10240066;28;20522;-91
2022/06/19 08:57:01;;;;;;;9.65;7.15;;;;;;;;;;10238483;28;20457;-90
2022/06/19 09:02:17;;;;;;;8.50;6.50;;;;;;;;;;10227947;28;20438;-91
2022/06/19 09:07:30;;;;;;;10.68;6.10;;;;;;;;;;10237867;28;20518;-91
2022/06/19 09:12:45;;;;;;;7.60;6.80;;;;;;;;;;10239118;28;20495;-91
2022/06/19 09:17:58;;;;;;;8.05;6.50;;;;;;;;;;10230345;28;20505;-91
2022/06/19 09:23:25;;;;;;;8.80;6.32;;;;;;;;;;10233349;28;20885;-90
2022/06/19 09:28:35;;;;;;;6.60;5.40;;;;;;;;;;10231129;28;20448;-89
2022/06/19 09:33:44;;;;;;;6.10;5.47;;;;;;;;;;10226836;28;20469;-91
2022/06/19 09:38:52;;;;;;;6.03;5.00;;;;;;;;;;10231288;28;21316;-90
2022/06/19 09:44:01;;;;;;;4.95;4.47;;;;;;;;;;10223264;28;20559;-91
2022/06/19 09:49:11;;;;;;;5.40;4.40;;;;;;;;;;10231960;28;20530;-90
2022/06/19 09:54:17;;;;;;;4.95;4.55;;;;;;;;;;10230005;28;20465;-92
2022/06/19 09:59:23;;;;;;;5.22;4.53;;;;;;;;;;10238820;28;20436;-92
2022/06/19 10:04:36;;;;;;;4.97;4.45;;;;;;;;;;10223989;28;20518;-89
2022/06/19 10:09:51;;;;;;;4.65;4.25;;;;;;;;;;10222805;28;20871;-91
2022/06/19 10:14:53;;;;;;;7.35;4.55;;;;;;;;;;10224402;28;20514;-91
2022/06/19 10:20:04;;;;;;;5.22;4.53;;;;;;;;;;10239606;28;20799;-89
2022/06/19 10:25:25;;;;;;;4.30;3.90;;;;;;;;;;10226103;28;20441;-89
2022/06/19 10:30:35;;;;;;;5.38;4.30;;;;;;;;;;10222575;28;20516;-90
2022/06/19 10:35:44;;;;;;;6.83;4.13;;;;;;;;;;10231075;28;20940;-91
2022/06/19 10:40:55;;;;;;;4.88;4.13;;;;;;;;;;10224349;28;20479;-92
2022/06/19 10:45:58;;;;;;;4.65;3.80;;;;;;;;;;10223885;28;20424;-90
2022/06/19 10:51:14;;;;;;;4.03;3.63;;;;;;;;;;10226353;28;20486;-89
2022/06/19 10:56:26;;;;;;;3.95;3.40;;;;;;;;;;10212669;28;20427;-93
2022/06/19 11:07:21;;;;;;;4.78;3.70;;;;;;;;;;10215445;28;20459;-93
2022/06/19 11:12:32;;;;;;;3.40;3.10;;;;;;;;;;10231347;28;20502;-93
2022/06/19 11:17:37;;;;;;;3.87;3.40;;;;;;;;;;10230837;28;20439;-93
2022/06/19 11:23:06;;;;;;;4.25;3.85;;;;;;;;;;10231362;28;20809;-92
2022/06/19 11:28:11;;;;;;;4.03;3.37;;;;;;;;;;10227856;28;20424;-92
2022/06/19 11:39:03;;;;;;;4.70;3.45;;;;;;;;;;10224864;28;20896;-93
2022/06/19 11:44:16;;;;;;;4.67;3.87;;;;;;;;;;10226553;28;20523;-92
2022/06/19 11:49:31;;;;;;;4.57;3.70;;;;;;;;;;10234164;28;20432;-94
2022/06/19 11:54:37;;;;;;;3.65;3.35;;;;;;;;;;10235337;28;20423;-92
2022/06/19 11:59:44;;;;;;;3.90;3.60;;;;;;;;;;10244275;28;20464;-92
2022/06/19 12:05:50;;;;;;;4.82;3.25;;;;;;;;;;10255558;28;20428;-91
2022/06/19 12:10:57;;;;;;;3.50;3.20;;;;;;;;;;10229068;28;20475;-94
2022/06/19 12:16:20;;;;;;;4.13;3.30;;;;;;;;;;10216103;28;20429;-91
2022/06/19 12:21:26;;;;;;;4.17;3.47;;;;;;;;;;10215747;28;20417;-93
2022/06/19 12:38:21;;;;;;;4.22;3.20;;;;;;;;;;10259031;29;20541;-95
2022/06/19 15:50:09;;;;;;;2.90;2.70;;;;;;;;;;7255566;23;20449;-73
2022/06/19 18:52:27;;;;;;;2.67;2.20;;;;;;;;;;11053327;23;20422;-82
2022/06/19 18:57:29;;;;;;;5.27;2.80;;;;;;;;;;10249781;28;20420;-90
2022/06/19 19:02:31;;;;;;;3.28;1.90;;;;;;;;;;10258640;28;20414;-81
2022/06/19 19:07:34;;;;;;;2.22;2.00;;;;;;;;;;10256841;28;20766;-81
2022/06/19 19:12:36;;;;;;;3.38;2.33;;;;;;;;;;10251208;28;20410;-82
2022/06/19 19:17:38;;;;;;;3.75;2.60;;;;;;;;;;10253339;28;20556;-82
2022/06/19 19:22:41;;;;;;;3.07;2.37;;;;;;;;;;10250591;28;20501;-82
2022/06/19 19:27:43;;;;;;;4.13;2.42;;;;;;;;;;10254406;28;20431;-82
2022/06/19 19:32:46;;;;;;;3.67;2.35;;;;;;;;;;10252406;28;20505;-82
2022/06/19 19:37:50;;;;;;;4.78;2.25;;;;;;;;;;10249824;28;20944;-82
2022/06/19 19:42:52;;;;;;;3.57;2.13;;;;;;;;;;10259932;28;20418;-83
2022/06/19 19:47:54;;;;;;;5.25;2.22;;;;;;;;;;10255908;28;20433;-82
2022/06/19 19:52:58;;;;;;;2.63;2.05;;;;;;;;;;10257073;28;20422;-82
2022/06/19 19:57:59;;;;;;;2.70;2.08;;;;;;;;;;10255589;28;20420;-83
2022/06/19 20:03:01;;;;;;;3.10;2.13;;;;;;;;;;10255459;28;20424;-83
2022/06/19 20:13:24;;;;;;;2.35;2.15;;;;;;;;;;10260833;28;20406;-82
2022/06/19 20:18:26;;;;;;;3.85;2.60;;;;;;;;;;10259445;28;20760;-82
2022/06/19 20:23:37;;;;;;;4.70;2.60;;;;;;;;;;10262243;28;20436;-82
2022/06/19 20:28:42;;;;;;;4.40;2.73;;;;;;;;;;10263421;28;20552;-82
2022/06/19 20:33:44;;;;;;;3.13;2.33;;;;;;;;;;10257345;28;20441;-82
2022/06/19 20:38:51;;;;;;;2.67;2.47;;;;;;;;;;10260513;28;21240;-82
2022/06/19 20:43:53;;;;;;;4.57;2.97;;;;;;;;;;10263417;28;20512;-83
2022/06/19 20:48:55;;;;;;;3.57;2.80;;;;;;;;;;10264953;28;20438;-82
2022/06/19 20:54:00;;;;;;;5.10;2.90;;;;;;;;;;10264509;28;20450;-83
2022/06/19 20:59:03;;;;;;;3.13;2.83;;;;;;;;;;10255677;28;20418;-81
2022/06/19 21:04:05;;;;;;;3.33;2.90;;;;;;;;;;10259847;28;20526;-81
2022/06/19 21:09:16;;;;;;;3.80;3.22;;;;;;;;;;10255175;28;20487;-79
2022/06/19 21:14:18;;;;;;;2.97;2.70;;;;;;;;;;10261973;28;20417;-80
2022/06/19 21:19:20;;;;;;;2.80;2.50;;;;;;;;;;10259147;28;20544;-81
2022/06/19 21:24:25;;;;;;;3.67;2.67;;;;;;;;;;10268002;28;20779;-80
2022/06/19 21:29:27;;;;;;;3.00;2.70;;;;;;;;;;10263586;28;20422;-81
2022/06/19 21:34:29;;;;;;;2.85;2.60;;;;;;;;;;10268707;28;20449;-79
2022/06/19 21:39:32;;;;;;;3.30;2.85;;;;;;;;;;10265735;28;20896;-79
2022/06/19 21:44:34;;;;;;;4.57;3.03;;;;;;;;;;10256661;28;20418;-81
2022/06/19 21:49:36;;;;;;;4.00;3.60;;;;;;;;;;10257129;28;20437;-81
2022/06/19 21:54:39;;;;;;;5.22;3.90;;;;;;;;;;10259958;28;20513;-80
2022/06/19 21:59:41;;;;;;;6.43;4.30;;;;;;;;;;10265872;28;20413;-81
2022/06/19 22:04:42;;;;;;;7.13;4.53;;;;;;;;;;10268798;28;20493;-81
2022/06/19 22:15:06;;;;;;;5.13;4.43;;;;;;;;;;10261646;28;20486;-80
2022/06/19 22:20:09;;;;;;;5.63;4.55;;;;;;;;;;10259100;28;20399;-82
2022/06/19 22:25:15;;;;;;;6.38;4.78;;;;;;;;;;10257828;28;20499;-81
2022/06/19 22:30:19;;;;;;;6.95;4.97;;;;;;;;;;10251170;28;20906;-82
2022/06/19 22:35:21;;;;;;;6.93;4.85;;;;;;;;;;10259301;28;20441;-81
2022/06/19 22:40:25;;;;;;;7.78;5.20;;;;;;;;;;10261916;28;20420;-82
2022/06/19 22:45:31;;;;;;;6.10;5.30;;;;;;;;;;10256709;28;20413;-81
2022/06/19 22:50:33;;;;;;;5.40;4.90;;;;;;;;;;10258245;28;20428;-82
2022/06/19 22:55:36;;;;;;;7.32;5.45;;;;;;;;;;10249691;28;20483;-80
2022/06/19 23:05:59;;;;;;;7.90;5.68;;;;;;;;;;10264867;28;20406;-80
2022/06/19 23:11:03;;;;;;;6.50;5.57;;;;;;;;;;10272009;28;20434;-81
2022/06/19 23:16:05;;;;;;;6.90;5.20;;;;;;;;;;10265442;28;21230;-81
2022/06/19 23:21:07;;;;;;;6.57;5.03;;;;;;;;;;10259320;28;20965;-81
2022/06/19 23:26:16;;;;;;;8.40;5.10;;;;;;;;;;10266577;28;20442;-81
2022/06/19 23:31:22;;;;;;;5.73;4.93;;;;;;;;;;10266426;28;20513;-81
2022/06/19 23:36:26;;;;;;;6.80;5.07;;;;;;;;;;10265565;28;20424;-81
2022/06/19 23:41:29;;;;;;;5.57;4.80;;;;;;;;;;10242151;28;21146;-80
2022/06/19 23:46:33;;;;;;;7.10;5.13;;;;;;;;;;10261013;28;20494;-82
2022/06/19 23:51:35;;;;;;;5.63;4.78;;;;;;;;;;10261336;28;20921;-81
2022/06/19 23:56:39;;;;;;;5.50;4.30;;;;;;;;;;10255847;28;20417;-81
